Time;durP1;ratioP1;P1;durP2;ratioP2;P2;SDS_P1;SDS_P2;PMS_P1;PMS_P2;Temp;Humidity;BMP_temperature;BMP_pressure;BME280_temperature;BME280_humidity;BME280_pressure;Samples;Min_cycle;Max_cycle;Signal;HPM_P1;HPM_P2
2022/04/16 00:01:17;;;;;;;1.80;1.70;;;21.40;40.50;;;;;;5149054;27;47924;-22
2022/04/16 00:03:45;;;;;;;1.63;1.52;;;21.40;40.50;;;;;;5149040;27;46812;-22
2022/04/16 00:06:13;;;;;;;1.80;1.70;;;21.40;40.50;;;;;;5148772;27;46889;-22
2022/04/16 00:08:40;;;;;;;1.90;1.63;;;21.30;40.50;;;;;;5149110;27;47282;-22
2022/04/16 00:11:07;;;;;;;1.88;1.77;;;21.30;40.60;;;;;;5148847;27;49176;-22
2022/04/16 00:13:34;;;;;;;1.83;1.73;;;21.30;40.60;;;;;;5149086;27;47408;-14
2022/04/16 00:16:01;;;;;;;1.63;1.52;;;21.30;40.60;;;;;;5148657;27;46909;-13
2022/04/16 00:18:27;;;;;;;1.95;1.85;;;21.30;40.60;;;;;;5149248;27;46902;-22
2022/04/16 00:20:56;;;;;;;1.63;1.52;;;21.20;40.70;;;;;;5148294;27;47924;-22
2022/04/16 00:23:26;;;;;;;2.25;1.63;;;21.20;40.70;;;;;;5148940;27;46958;-22
2022/04/16 00:25:53;;;;;;;1.88;1.60;;;21.20;40.70;;;;;;5148593;27;46945;-14
2022/04/16 00:28:20;;;;;;;1.75;1.65;;;21.20;40.70;;;;;;5148991;27;46894;-13
2022/04/16 00:30:47;;;;;;;1.70;1.60;;;21.20;40.70;;;;;;5148233;27;47065;-22
2022/04/16 00:33:14;;;;;;;1.65;1.55;;;21.20;40.80;;;;;;5148743;27;47257;-15
2022/04/16 00:35:42;;;;;;;1.73;1.63;;;21.10;40.70;;;;;;5148566;27;46841;-13
2022/04/16 00:38:08;;;;;;;1.70;1.60;;;21.10;40.80;;;;;;5148590;27;46882;-14
2022/04/16 00:40:36;;;;;;;1.60;1.50;;;21.10;40.80;;;;;;5148401;27;49075;-22
2022/04/16 00:43:05;;;;;;;1.70;1.60;;;21.10;40.90;;;;;;5148570;27;46972;-13
2022/04/16 00:45:31;;;;;;;1.73;1.63;;;21.10;40.90;;;;;;5148341;27;47033;-13
2022/04/16 00:47:59;;;;;;;2.05;1.73;;;21.00;40.90;;;;;;5148642;27;46928;-14
2022/04/16 00:50:26;;;;;;;1.60;1.50;;;21.00;40.90;;;;;;5148297;27;49039;-22
2022/04/16 00:52:52;;;;;;;1.60;1.50;;;21.00;41.00;;;;;;5148047;27;47147;-14
2022/04/16 00:55:19;;;;;;;1.70;1.60;;;21.00;41.00;;;;;;5148393;27;47014;-14
2022/04/16 00:57:47;;;;;;;1.95;1.85;;;21.00;41.00;;;;;;5148493;27;46905;-22
2022/04/16 01:00:14;;;;;;;1.70;1.58;;;20.90;41.10;;;;;;5147844;27;47990;-22
2022/04/16 01:02:42;;;;;;;1.73;1.63;;;20.90;41.10;;;;;;5148207;27;46899;-21
2022/04/16 01:05:10;;;;;;;1.50;1.40;;;20.90;41.10;;;;;;5147933;27;46921;-13
2022/04/16 01:07:37;;;;;;;1.63;1.52;;;20.90;41.10;;;;;;5148334;27;46882;-22
2022/04/16 01:10:04;;;;;;;1.60;1.50;;;20.90;41.20;;;;;;5147755;27;48213;-22
2022/04/16 01:12:31;;;;;;;1.40;1.40;;;20.80;41.10;;;;;;5147120;27;46860;-15
2022/04/16 01:14:59;;;;;;;2.40;1.80;;;20.80;41.10;;;;;;5148020;27;46883;-14
2022/04/16 01:17:26;;;;;;;1.70;1.60;;;20.80;41.20;;;;;;5147868;27;46858;-21
2022/04/16 01:19:53;;;;;;;1.73;1.40;;;20.80;41.20;;;;;;5147579;27;47871;-22
2022/04/16 01:22:21;;;;;;;1.20;1.20;;;20.80;41.30;;;;;;5147343;27;46796;-22
2022/04/16 01:24:49;;;;;;;1.65;1.55;;;20.70;41.30;;;;;;5147896;27;46855;-22
2022/04/16 01:27:17;;;;;;;1.50;1.40;;;20.70;41.30;;;;;;5147597;27;47032;-22
2022/04/16 01:29:44;;;;;;;1.58;1.48;;;20.70;41.30;;;;;;5147776;27;47838;-13
2022/04/16 01:32:11;;;;;;;1.85;1.65;;;20.70;41.30;;;;;;5147916;27;46749;-15
2022/04/16 01:34:37;;;;;;;1.65;1.55;;;20.60;41.30;;;;;;5147780;27;46826;-22
2022/04/16 01:37:05;;;;;;;1.90;1.80;;;20.60;41.30;;;;;;5147678;27;46854;-13
2022/04/16 01:39:31;;;;;;;1.65;1.55;;;20.60;41.30;;;;;;5147311;27;48690;-21
2022/04/16 01:42:00;;;;;;;1.40;1.30;;;20.60;41.50;;;;;;5146614;27;46803;-21
2022/04/16 01:44:29;;;;;;;1.50;1.40;;;20.60;41.40;;;;;;5147401;27;46748;-15
2022/04/16 01:46:55;;;;;;;1.58;1.48;;;20.50;41.40;;;;;;5147299;27;47307;-13
2022/04/16 01:49:22;;;;;;;1.70;1.60;;;20.50;41.50;;;;;;5147439;27;47158;-14
2022/04/16 01:51:49;;;;;;;1.95;1.55;;;20.50;41.50;;;;;;5147264;27;46767;-13
2022/04/16 01:54:15;;;;;;;1.45;1.35;;;20.50;41.50;;;;;;5147564;27;46888;-22
2022/04/16 01:56:42;;;;;;;1.52;1.42;;;20.50;41.60;;;;;;5147492;27;46778;-14
2022/04/16 01:59:11;;;;;;;1.20;1.20;;;20.40;41.50;;;;;;5147426;27;48898;-21
2022/04/16 02:01:38;;;;;;;1.73;1.50;;;20.40;41.50;;;;;;5147312;27;46959;-22
2022/04/16 02:04:05;;;;;;;1.60;1.50;;;20.40;41.50;;;;;;5147460;27;46865;-14
2022/04/16 02:06:31;;;;;;;1.40;1.30;;;20.40;41.60;;;;;;5147358;27;47278;-14
2022/04/16 02:08:58;;;;;;;1.98;1.60;;;20.40;41.60;;;;;;5147293;27;48789;-14
2022/04/16 02:11:25;;;;;;;1.60;1.50;;;20.30;41.60;;;;;;5147031;27;47444;-22
2022/04/16 02:13:52;;;;;;;1.52;1.42;;;20.30;41.70;;;;;;5147410;27;47106;-21
2022/04/16 02:16:20;;;;;;;2.05;1.55;;;20.30;41.70;;;;;;5147203;27;46890;-22
2022/04/16 02:18:46;;;;;;;1.80;1.70;;;20.30;41.70;;;;;;5147133;27;48047;-13
2022/04/16 02:21:13;;;;;;;1.40;1.30;;;20.30;41.70;;;;;;5146664;27;46972;-22
2022/04/16 02:23:40;;;;;;;1.50;1.40;;;20.30;41.70;;;;;;5147918;27;46913;-22
2022/04/16 02:26:09;;;;;;;1.60;1.50;;;20.20;42.30;;;;;;5150681;27;46898;-13
2022/04/16 02:28:36;;;;;;;1.42;1.33;;;20.20;41.70;;;;;;5150648;27;47061;-14
2022/04/16 02:31:02;;;;;;;1.70;1.60;;;20.20;41.70;;;;;;5150566;27;46884;-13
2022/04/16 02:33:31;;;;;;;1.42;1.33;;;20.20;41.70;;;;;;5150736;27;46945;-13
2022/04/16 02:35:58;;;;;;;1.45;1.35;;;20.10;41.70;;;;;;5150525;27;47294;-22
2022/04/16 02:38:25;;;;;;;1.70;1.40;;;20.10;41.80;;;;;;5150230;27;48327;-13
2022/04/16 02:40:52;;;;;;;1.60;1.50;;;20.10;41.80;;;;;;5149975;27;46986;-13
2022/04/16 02:43:18;;;;;;;1.60;1.50;;;20.10;41.80;;;;;;5150325;27;46867;-22
2022/04/16 02:48:30;;;;;;;1.45;1.35;;;20.10;41.90;;;;;;5147449;27;46922;-19
2022/04/16 02:50:57;;;;;;;1.42;1.33;;;20.00;41.80;;;;;;5150175;27;47279;-19
2022/04/16 02:53:24;;;;;;;1.60;1.50;;;20.00;41.90;;;;;;5150194;27;46844;-10
2022/04/16 02:55:51;;;;;;;1.38;1.27;;;19.90;41.90;;;;;;5150123;27;47185;-19
2022/04/16 02:58:17;;;;;;;1.50;1.40;;;19.90;41.90;;;;;;5150232;27;47824;-11
2022/04/16 03:00:44;;;;;;;1.45;1.35;;;19.90;42.00;;;;;;5149957;27;47120;-10
2022/04/16 03:03:11;;;;;;;1.48;1.38;;;19.90;42.00;;;;;;5149988;27;46963;-19
2022/04/16 03:05:39;;;;;;;1.52;1.42;;;19.90;42.00;;;;;;5149861;27;47255;-11
2022/04/16 03:08:07;;;;;;;1.27;1.23;;;19.80;42.00;;;;;;5149690;27;48114;-11
2022/04/16 03:10:33;;;;;;;1.30;1.20;;;19.80;42.00;;;;;;5149828;27;46824;-11
2022/04/16 03:13:00;;;;;;;1.30;1.20;;;19.80;42.00;;;;;;5150125;27;46836;-19
2022/04/16 03:18:11;;;;;;;1.40;1.30;;;19.80;42.10;;;;;;5146985;27;46909;-19
2022/04/16 03:20:39;;;;;;;1.45;1.35;;;19.80;42.10;;;;;;5149670;27;46887;-11
2022/04/16 03:23:07;;;;;;;1.67;1.40;;;19.70;42.10;;;;;;5149703;27;46751;-11
2022/04/16 03:25:33;;;;;;;1.40;1.30;;;19.70;42.20;;;;;;5149876;27;47056;-10
2022/04/16 03:28:00;;;;;;;1.35;1.35;;;19.70;42.10;;;;;;5149380;27;48235;-11
2022/04/16 03:30:27;;;;;;;1.25;1.25;;;19.70;42.10;;;;;;5149486;27;46965;-10
2022/04/16 03:32:54;;;;;;;1.48;1.38;;;19.60;42.10;;;;;;5149737;27;46839;-19
2022/04/16 03:35:21;;;;;;;1.20;1.20;;;19.60;42.20;;;;;;5149375;27;46820;-19
2022/04/16 03:37:49;;;;;;;1.40;1.30;;;19.60;42.20;;;;;;5149498;27;47939;-11
2022/04/16 03:40:16;;;;;;;1.33;1.23;;;19.60;42.20;;;;;;5149148;27;46838;-11
2022/04/16 03:42:46;;;;;;;1.48;1.38;;;19.50;42.20;;;;;;5149335;27;46859;-10
2022/04/16 03:45:18;;;;;;;1.60;1.50;;;19.50;42.20;;;;;;5149681;27;47189;-11
2022/04/16 03:47:45;;;;;;;1.73;1.58;;;19.50;42.30;;;;;;5149096;27;49048;-11
2022/04/16 03:50:13;;;;;;;1.38;1.35;;;19.50;42.30;;;;;;5149207;27;47611;-19
2022/04/16 03:52:40;;;;;;;1.75;1.27;;;19.50;42.30;;;;;;5149225;27;47018;-19
2022/04/16 04:00:40;;;;;;;1.40;1.30;;;19.40;42.30;;;;;;5146366;27;46738;-11
2022/04/16 04:03:07;;;;;;;1.45;1.35;;;19.40;42.40;;;;;;5149096;27;46820;-19
2022/04/16 04:05:33;;;;;;;1.10;1.10;;;19.40;42.40;;;;;;5148861;27;47271;-11
2022/04/16 04:08:00;;;;;;;1.63;1.35;;;19.30;42.30;;;;;;5148963;27;48019;-12
2022/04/16 04:10:28;;;;;;;1.13;1.13;;;19.30;42.30;;;;;;5148714;27;46867;-11
2022/04/16 04:12:55;;;;;;;1.20;1.10;;;19.30;42.40;;;;;;5149102;27;46751;-19
2022/04/16 04:15:23;;;;;;;1.25;1.25;;;19.30;42.40;;;;;;5148826;27;47299;-19
2022/04/16 04:17:50;;;;;;;1.45;1.30;;;19.30;42.40;;;;;;5148547;27;47101;-19
2022/04/16 04:20:17;;;;;;;1.00;1.00;;;19.30;42.40;;;;;;5148822;27;46882;-11
2022/04/16 04:22:44;;;;;;;1.20;1.10;;;19.20;42.40;;;;;;5148586;27;46879;-11
2022/04/16 04:25:10;;;;;;;1.42;1.33;;;19.20;42.40;;;;;;5149027;27;46982;-11
2022/04/16 04:27:38;;;;;;;1.30;1.20;;;19.10;42.50;;;;;;5148610;27;48218;-19
2022/04/16 04:30:06;;;;;;;1.50;1.40;;;19.10;42.50;;;;;;5148724;27;46952;-19
2022/04/16 04:32:32;;;;;;;1.40;1.30;;;19.10;42.60;;;;;;5148455;27;47006;-19
2022/04/16 04:34:59;;;;;;;1.10;1.10;;;19.10;42.70;;;;;;5149010;27;46948;-10
2022/04/16 04:37:26;;;;;;;1.20;1.10;;;19.10;42.70;;;;;;5148148;27;47904;-10
2022/04/16 04:39:52;;;;;;;1.27;1.17;;;19.10;42.60;;;;;;5148618;27;46876;-11
2022/04/16 04:42:23;;;;;;;1.42;1.20;;;19.00;42.60;;;;;;5148321;27;46857;-11
2022/04/16 04:44:51;;;;;;;1.63;1.20;;;19.00;42.60;;;;;;5148860;27;46956;-19
2022/04/16 04:47:18;;;;;;;1.20;1.10;;;19.00;42.60;;;;;;5146934;27;47107;-11
2022/04/16 04:49:45;;;;;;;1.50;1.30;;;19.00;42.60;;;;;;5148375;27;47286;-19
2022/04/16 04:52:11;;;;;;;1.58;1.48;;;18.90;42.70;;;;;;5148596;27;47018;-19
2022/04/16 04:54:38;;;;;;;1.10;1.05;;;18.90;42.70;;;;;;5148558;27;46891;-19
2022/04/16 04:57:05;;;;;;;1.38;0.95;;;18.90;42.70;;;;;;5147868;27;47508;-11
2022/04/16 04:59:32;;;;;;;1.30;1.20;;;18.90;42.60;;;;;;5148312;27;46981;-19
2022/04/16 05:02:00;;;;;;;1.20;1.10;;;18.90;42.70;;;;;;5147756;27;46824;-11
2022/04/16 05:04:27;;;;;;;1.00;1.00;;;18.90;42.70;;;;;;5148119;27;46904;-19
2022/04/16 05:06:53;;;;;;;2.05;1.20;;;18.90;42.70;;;;;;5148036;27;47939;-19
2022/04/16 05:09:20;;;;;;;1.20;1.10;;;18.90;42.70;;;;;;5148077;27;46916;-11
2022/04/16 05:11:47;;;;;;;1.20;1.10;;;18.80;42.50;;;;;;5147975;27;47051;-19
2022/04/16 05:14:13;;;;;;;1.33;1.15;;;18.80;42.70;;;;;;5148253;27;47224;-19
2022/04/16 05:16:40;;;;;;;1.25;1.15;;;18.70;42.70;;;;;;5147771;27;47155;-19
2022/04/16 05:19:08;;;;;;;1.27;1.17;;;18.70;42.70;;;;;;5147921;27;47147;-10
2022/04/16 05:21:35;;;;;;;1.27;1.17;;;18.70;42.80;;;;;;5147739;27;46740;-19
2022/04/16 05:24:03;;;;;;;1.02;1.02;;;18.70;42.70;;;;;;5148215;27;46890;-11
2022/04/16 05:26:29;;;;;;;1.00;1.00;;;18.70;42.70;;;;;;5147588;27;48216;-19
2022/04/16 05:28:56;;;;;;;1.00;1.00;;;18.70;42.80;;;;;;5147712;27;47002;-19
2022/04/16 05:31:26;;;;;;;1.30;1.20;;;18.70;42.80;;;;;;5147524;27;46874;-19
2022/04/16 05:36:38;;;;;;;1.00;1.00;;;18.70;42.70;;;;;;5146211;27;47422;-11
2022/04/16 05:39:05;;;;;;;1.27;1.17;;;18.70;42.70;;;;;;5147709;27;46988;-11
2022/04/16 05:41:33;;;;;;;1.00;1.00;;;18.70;43.30;;;;;;5147171;27;46799;-19
2022/04/16 05:43:59;;;;;;;0.95;0.95;;;18.70;42.80;;;;;;5147641;27;47345;-11
2022/04/16 05:46:26;;;;;;;1.40;1.30;;;18.70;42.80;;;;;;5147522;27;47069;-19
2022/04/16 05:48:53;;;;;;;1.13;1.02;;;18.70;42.80;;;;;;5147539;27;47424;-19
2022/04/16 05:51:19;;;;;;;1.30;1.23;;;18.70;42.80;;;;;;5147331;27;46831;-10
2022/04/16 05:53:48;;;;;;;1.10;1.10;;;18.70;42.70;;;;;;5147778;27;46929;-19
2022/04/16 05:56:14;;;;;;;1.30;1.20;;;18.60;42.80;;;;;;5147157;27;47849;-19
2022/04/16 05:58:41;;;;;;;1.00;1.00;;;18.60;42.70;;;;;;5149496;27;46913;-19
2022/04/16 06:01:08;;;;;;;1.35;1.25;;;18.60;42.70;;;;;;5151181;27;46825;-19
2022/04/16 06:03:35;;;;;;;1.30;1.20;;;18.60;42.80;;;;;;5151472;27;46873;-19
2022/04/16 06:06:02;;;;;;;0.90;0.90;;;18.60;42.70;;;;;;5150623;27;48169;-19
2022/04/16 06:08:29;;;;;;;1.10;1.10;;;18.60;42.70;;;;;;5150753;27;47080;-19
2022/04/16 06:10:57;;;;;;;1.00;1.00;;;18.60;42.70;;;;;;5150998;27;46832;-19
2022/04/16 06:13:23;;;;;;;1.25;1.25;;;18.60;42.70;;;;;;5150921;27;46877;-11
2022/04/16 06:15:50;;;;;;;1.15;1.05;;;18.60;42.70;;;;;;5150553;27;48807;-19
2022/04/16 06:18:17;;;;;;;1.00;1.00;;;18.60;42.80;;;;;;5150970;27;46889;-11
2022/04/16 06:20:43;;;;;;;1.30;1.10;;;18.60;42.80;;;;;;5150607;27;46958;-19
2022/04/16 06:23:10;;;;;;;0.90;0.90;;;18.50;42.80;;;;;;5151083;27;47251;-11
2022/04/16 06:25:37;;;;;;;1.10;1.08;;;18.50;42.80;;;;;;5150609;27;48141;-10
2022/04/16 06:28:06;;;;;;;1.00;1.00;;;18.50;42.80;;;;;;5150415;27;46803;-11
2022/04/16 06:30:32;;;;;;;0.95;0.95;;;18.50;42.80;;;;;;5150345;27;46908;-10
2022/04/16 06:32:59;;;;;;;1.08;0.90;;;18.60;42.80;;;;;;5150861;27;46906;-19
2022/04/16 06:35:26;;;;;;;1.15;1.10;;;18.50;42.90;;;;;;5150353;27;48213;-19
2022/04/16 06:37:52;;;;;;;0.90;0.90;;;18.50;42.80;;;;;;5150337;27;46905;-19
2022/04/16 06:40:19;;;;;;;1.05;1.02;;;18.50;42.90;;;;;;5150411;27;46811;-11
2022/04/16 06:42:46;;;;;;;0.82;0.82;;;18.50;42.80;;;;;;5150605;27;46915;-11
2022/04/16 06:45:14;;;;;;;1.08;1.00;;;18.50;42.90;;;;;;5150110;27;46900;-11
2022/04/16 06:47:41;;;;;;;0.90;0.90;;;18.50;42.90;;;;;;5150041;27;46860;-19
2022/04/16 06:50:08;;;;;;;1.10;1.00;;;18.50;42.90;;;;;;5150329;27;46844;-19
2022/04/16 06:52:35;;;;;;;1.13;1.05;;;18.50;42.90;;;;;;5150186;27;47338;-19
2022/04/16 06:55:02;;;;;;;0.90;0.90;;;18.50;42.80;;;;;;5150186;27;49100;-11
2022/04/16 06:57:28;;;;;;;1.00;1.00;;;18.50;42.80;;;;;;5149721;27;46922;-10
2022/04/16 06:59:55;;;;;;;1.13;1.10;;;18.60;42.90;;;;;;5150068;27;46937;-19
2022/04/16 07:02:23;;;;;;;0.90;0.90;;;18.60;42.90;;;;;;5150023;27;46791;-11
2022/04/16 07:04:50;;;;;;;1.08;1.00;;;18.60;42.80;;;;;;5150011;27;49268;-11
2022/04/16 07:07:16;;;;;;;1.00;1.00;;;18.60;42.80;;;;;;5149949;27;46966;-10
2022/04/16 07:09:43;;;;;;;2.33;1.20;;;18.60;42.70;;;;;;5149021;27;46847;-19
2022/04/16 07:12:10;;;;;;;0.85;0.85;;;18.60;42.90;;;;;;5149967;27;46837;-19
2022/04/16 07:14:37;;;;;;;0.88;0.88;;;18.60;42.80;;;;;;5149904;27;47063;-10
2022/04/16 07:17:05;;;;;;;1.02;0.95;;;18.60;42.80;;;;;;5158023;27;46906;-11
2022/04/16 07:19:33;;;;;;;0.90;0.90;;;18.60;42.70;;;;;;5170724;27;46989;-19
2022/04/16 07:21:59;;;;;;;1.00;1.00;;;18.60;42.90;;;;;;5170812;27;46927;-10
2022/04/16 07:24:26;;;;;;;0.80;0.80;;;18.60;42.80;;;;;;5170527;27;47845;-11
2022/04/16 07:26:54;;;;;;;0.90;0.90;;;18.70;42.80;;;;;;5170496;27;46852;-11
2022/04/16 07:29:20;;;;;;;1.00;1.00;;;18.70;42.80;;;;;;5170614;27;46887;-19
2022/04/16 07:31:47;;;;;;;1.00;1.00;;;18.70;42.80;;;;;;5170267;27;47294;-18
2022/04/16 07:34:14;;;;;;;1.08;1.00;;;18.70;42.80;;;;;;5170270;27;48173;-11
2022/04/16 07:36:42;;;;;;;0.98;0.98;;;18.70;42.70;;;;;;5170461;27;46964;-10
2022/04/16 07:39:09;;;;;;;1.08;1.00;;;18.70;42.70;;;;;;5170655;27;46778;-11
2022/04/16 07:41:36;;;;;;;1.10;1.00;;;18.70;42.80;;;;;;5170421;27;46957;-10
2022/04/16 07:44:03;;;;;;;0.93;0.93;;;18.70;42.70;;;;;;5170373;27;48932;-11
2022/04/16 07:46:30;;;;;;;0.90;0.90;;;18.70;42.80;;;;;;5170188;27;46954;-11
2022/04/16 07:48:58;;;;;;;1.17;1.08;;;18.70;42.80;;;;;;5170326;27;46887;-19
2022/04/16 07:51:24;;;;;;;1.50;1.40;;;18.70;42.80;;;;;;5170093;27;47282;-19
2022/04/16 07:53:52;;;;;;;1.20;1.10;;;18.70;42.80;;;;;;5170089;27;47108;-11
2022/04/16 07:56:19;;;;;;;1.25;0.80;;;18.80;42.90;;;;;;5169986;27;47013;-19
2022/04/16 07:58:46;;;;;;;0.95;0.95;;;18.80;42.90;;;;;;5170450;27;46794;-10
2022/04/16 08:01:13;;;;;;;1.00;1.00;;;18.80;42.80;;;;;;5170069;27;46851;-11
2022/04/16 08:03:39;;;;;;;1.35;0.90;;;18.80;42.80;;;;;;5169781;27;48016;-11
2022/04/16 08:06:06;;;;;;;1.00;1.00;;;18.80;42.80;;;;;;5170023;27;47505;-11
2022/04/16 08:08:33;;;;;;;0.88;0.88;;;18.80;42.80;;;;;;5170075;27;46832;-19
2022/04/16 08:11:01;;;;;;;0.98;0.95;;;18.80;42.80;;;;;;5169747;27;46959;-12
2022/04/16 08:13:27;;;;;;;1.10;1.00;;;18.80;42.80;;;;;;5169816;27;46831;-11
2022/04/16 08:15:54;;;;;;;0.95;0.95;;;18.80;42.60;;;;;;5169458;27;46795;-11
2022/04/16 08:18:21;;;;;;;1.50;0.90;;;18.90;42.70;;;;;;5170024;27;46986;-11
2022/04/16 08:20:47;;;;;;;1.00;1.00;;;18.90;42.70;;;;;;5169358;27;47084;-19
2022/04/16 08:23:14;;;;;;;1.00;1.00;;;18.90;43.30;;;;;;5168979;27;48905;-14
2022/04/16 08:25:47;;;;;;;1.00;1.00;;;18.90;42.70;;;;;;5169671;27;46975;-10
2022/04/16 08:28:15;;;;;;;1.40;1.20;;;18.90;42.70;;;;;;5169795;27;46924;-19
2022/04/16 08:30:43;;;;;;;0.95;0.90;;;19.00;42.70;;;;;;5169597;27;46912;-19
2022/04/16 08:33:14;;;;;;;1.00;1.00;;;19.00;42.70;;;;;;5169300;27;49019;-19
2022/04/16 08:35:42;;;;;;;1.10;1.00;;;19.00;42.60;;;;;;5168852;27;47015;-11
2022/04/16 08:38:09;;;;;;;1.00;1.00;;;19.00;42.60;;;;;;5169584;27;46966;-12
2022/04/16 08:40:36;;;;;;;1.17;1.08;;;19.10;42.60;;;;;;5169288;27;46906;-19
2022/04/16 08:43:03;;;;;;;1.00;1.00;;;19.10;42.50;;;;;;5169386;27;46881;-11
2022/04/16 08:45:31;;;;;;;0.73;0.73;;;19.10;42.50;;;;;;5169403;27;47267;-10
2022/04/16 08:47:58;;;;;;;1.00;1.00;;;19.10;42.50;;;;;;5169617;27;46810;-19
2022/04/16 08:50:25;;;;;;;0.90;0.90;;;19.10;42.50;;;;;;5169182;27;47279;-10
2022/04/16 08:52:52;;;;;;;0.82;0.82;;;19.10;42.50;;;;;;5169261;27;48080;-18
2022/04/16 08:55:18;;;;;;;1.20;1.10;;;19.10;42.50;;;;;;5169300;27;46894;-11
2022/04/16 08:57:45;;;;;;;1.00;1.00;;;19.20;42.50;;;;;;5169289;27;46915;-11
2022/04/16 09:00:14;;;;;;;1.25;1.20;;;19.20;42.50;;;;;;5169334;27;46885;-19
2022/04/16 09:02:52;;;;;;;1.10;0.98;;;19.10;42.60;;;;;;5168842;27;48390;-11
2022/04/16 09:05:18;;;;;;;1.42;1.00;;;19.20;42.50;;;;;;5169032;27;47021;-10
2022/04/16 09:07:45;;;;;;;1.10;1.10;;;19.20;42.40;;;;;;5169081;27;46801;-11
2022/04/16 09:10:13;;;;;;;0.80;0.80;;;19.20;42.40;;;;;;5168858;27;46804;-19
2022/04/16 09:12:40;;;;;;;1.00;1.00;;;19.30;43.00;;;;;;5168960;27;48117;-10
2022/04/16 09:15:07;;;;;;;1.13;1.02;;;19.30;42.30;;;;;;5168977;27;46895;-11
2022/04/16 09:17:34;;;;;;;0.90;0.90;;;19.30;42.20;;;;;;5168888;27;46863;-19
2022/04/16 09:20:02;;;;;;;0.93;0.93;;;19.30;42.30;;;;;;5168829;27;47302;-11
2022/04/16 09:22:32;;;;;;;1.00;1.00;;;19.30;42.20;;;;;;5168614;27;48118;-21
2022/04/16 09:24:59;;;;;;;0.90;0.90;;;19.30;42.20;;;;;;5168131;27;47117;-11
2022/04/16 09:27:26;;;;;;;0.93;0.93;;;19.40;42.20;;;;;;5168168;27;47013;-19
2022/04/16 09:29:53;;;;;;;0.75;0.75;;;19.40;42.20;;;;;;5165790;27;47013;-11
2022/04/16 09:32:24;;;;;;;1.52;1.08;;;19.40;42.10;;;;;;5167680;27;46867;-20
2022/04/16 09:34:51;;;;;;;1.10;1.10;;;19.40;42.10;;;;;;5168701;27;46889;-19
2022/04/16 09:37:19;;;;;;;0.85;0.85;;;19.40;42.00;;;;;;5168658;27;46884;-19
2022/04/16 09:39:46;;;;;;;0.90;0.90;;;19.40;42.00;;;;;;5168969;27;47322;-19
2022/04/16 09:42:12;;;;;;;0.80;0.80;;;19.40;42.10;;;;;;5168254;27;47068;-19
2022/04/16 09:44:40;;;;;;;1.10;1.00;;;19.50;42.10;;;;;;5168392;27;46957;-19
2022/04/16 09:47:07;;;;;;;0.75;0.75;;;19.50;42.00;;;;;;5168525;27;46836;-10
2022/04/16 09:49:34;;;;;;;0.90;0.90;;;19.50;41.90;;;;;;5168688;27;46860;-11
2022/04/16 09:52:02;;;;;;;1.20;1.10;;;19.50;41.80;;;;;;5168305;27;48093;-11
2022/04/16 09:54:30;;;;;;;0.88;0.88;;;19.60;41.80;;;;;;5168649;27;46980;-10
2022/04/16 09:57:00;;;;;;;0.77;0.77;;;19.60;41.80;;;;;;5168101;27;46897;-11
2022/04/16 09:59:26;;;;;;;0.82;0.82;;;19.60;41.70;;;;;;5168195;27;47025;-19
2022/04/16 10:01:53;;;;;;;0.77;0.77;;;19.60;41.70;;;;;;5168137;27;48214;-11
2022/04/16 10:04:20;;;;;;;0.90;0.90;;;19.60;41.70;;;;;;5168293;27;47017;-19
2022/04/16 10:06:47;;;;;;;0.80;0.80;;;19.60;41.70;;;;;;5168160;27;46843;-11
2022/04/16 10:09:17;;;;;;;0.88;0.88;;;19.70;41.60;;;;;;5168330;27;47258;-10
2022/04/16 10:14:35;;;;;;;0.82;0.82;;;19.70;41.80;;;;;;5165406;27;46995;-11
2022/04/16 10:17:07;;;;;;;0.80;0.80;;;19.70;41.60;;;;;;5167866;27;46803;-10
2022/04/16 10:19:40;;;;;;;0.93;0.90;;;19.70;41.70;;;;;;5168361;27;46894;-11
2022/04/16 10:22:07;;;;;;;0.73;0.73;;;19.70;41.50;;;;;;5167871;27;47118;-19
2022/04/16 10:24:33;;;;;;;0.80;0.80;;;19.70;41.70;;;;;;5167896;27;46892;-11
2022/04/16 10:27:09;;;;;;;0.90;0.90;;;19.70;41.50;;;;;;5167374;27;46797;-11
2022/04/16 10:29:37;;;;;;;0.90;0.90;;;19.80;41.50;;;;;;5167725;27;47321;-11
2022/04/16 10:32:14;;;;;;;0.80;0.80;;;19.80;41.40;;;;;;5167708;27;46915;-11
2022/04/16 10:34:42;;;;;;;1.10;1.10;;;19.90;41.70;;;;;;5167283;27;47514;-19
2022/04/16 10:37:09;;;;;;;2.45;0.90;;;19.90;41.30;;;;;;5155806;27;47074;-11
2022/04/16 10:39:36;;;;;;;0.90;0.90;;;19.90;41.20;;;;;;5164937;27;46903;-13
2022/04/16 10:42:05;;;;;;;1.17;1.00;;;20.00;41.30;;;;;;5164622;27;47921;-13
2022/04/16 10:44:44;;;;;;;0.93;0.93;;;20.00;41.40;;;;;;5166047;27;47264;-21
2022/04/16 10:47:11;;;;;;;1.00;0.90;;;20.00;41.20;;;;;;5169290;27;46864;-10
2022/04/16 10:49:40;;;;;;;1.23;1.13;;;20.10;41.00;;;;;;5169563;27;47051;-14
2022/04/16 10:52:18;;;;;;;1.85;1.45;;;20.10;40.90;;;;;;5170002;27;49051;-22
2022/04/16 10:54:47;;;;;;;1.38;0.90;;;20.20;40.90;;;;;;5170493;27;46923;-13
2022/04/16 10:57:13;;;;;;;0.85;0.85;;;20.20;40.80;;;;;;5171152;27;46988;-14
2022/04/16 10:59:42;;;;;;;1.20;1.10;;;20.20;40.80;;;;;;5169237;27;47312;-22
2022/04/16 11:02:17;;;;;;;1.70;0.80;;;20.20;40.70;;;;;;5170481;27;47930;-14
2022/04/16 11:04:43;;;;;;;1.10;1.02;;;20.30;40.60;;;;;;5171192;27;46861;-22
2022/04/16 11:07:10;;;;;;;0.80;0.80;;;20.30;40.60;;;;;;5166843;27;47077;-19
2022/04/16 11:09:37;;;;;;;2.17;0.88;;;20.30;40.50;;;;;;5170589;27;46836;-11
2022/04/16 11:12:07;;;;;;;1.30;1.08;;;20.40;40.30;;;;;;5169058;27;48037;-14
2022/04/16 11:14:34;;;;;;;0.80;0.80;;;20.50;40.20;;;;;;5167985;27;47357;-13
2022/04/16 11:17:03;;;;;;;0.80;0.80;;;20.50;40.00;;;;;;5170550;27;46929;-22
2022/04/16 11:19:31;;;;;;;0.80;0.80;;;20.60;39.90;;;;;;5170498;27;47034;-22
2022/04/16 11:21:58;;;;;;;0.93;0.90;;;20.60;39.70;;;;;;5168052;27;47801;-16
2022/04/16 11:24:25;;;;;;;0.90;0.90;;;20.70;39.80;;;;;;5169211;27;46893;-22
2022/04/16 11:35:12;;;;;;;0.80;0.80;;;20.80;39.70;;;;;;5164256;27;47076;-19
2022/04/16 11:37:38;;;;;;;0.93;0.90;;;20.90;39.50;;;;;;5169220;27;46852;-11
2022/04/16 11:40:07;;;;;;;2.33;1.00;;;21.00;39.20;;;;;;5170405;27;47273;-19
2022/04/16 11:42:34;;;;;;;0.90;0.90;;;21.00;39.00;;;;;;5169825;27;47048;-20
2022/04/16 11:45:00;;;;;;;0.70;0.70;;;21.10;38.90;;;;;;5170336;27;47099;-11
2022/04/16 11:47:30;;;;;;;1.02;0.80;;;21.10;38.80;;;;;;5170472;27;47153;-19
2022/04/16 11:49:59;;;;;;;0.80;0.80;;;21.20;38.80;;;;;;5170022;27;47300;-19
2022/04/16 11:52:25;;;;;;;2.13;0.93;;;21.20;38.60;;;;;;5169665;27;47817;-19
2022/04/16 11:55:06;;;;;;;0.95;0.90;;;21.30;38.50;;;;;;5174753;27;47175;-13
2022/04/16 11:57:33;;;;;;;0.70;0.70;;;21.40;37.80;;;;;;5181278;27;46906;-12
2022/04/16 12:00:02;;;;;;;0.80;0.80;;;21.40;37.90;;;;;;5179227;27;47007;-12
2022/04/16 12:02:34;;;;;;;0.85;0.80;;;21.50;37.80;;;;;;5178651;27;49144;-12
2022/04/16 12:05:08;;;;;;;0.80;0.80;;;21.50;37.90;;;;;;5176707;27;46922;-12
2022/04/16 12:07:35;;;;;;;1.05;0.75;;;21.50;37.70;;;;;;5178178;27;47168;-20
2022/04/16 12:10:02;;;;;;;1.00;1.00;;;21.60;37.70;;;;;;5179543;27;47260;-12
2022/04/16 12:12:29;;;;;;;0.80;0.80;;;21.70;37.50;;;;;;5179776;27;49060;-20
2022/04/16 12:14:56;;;;;;;0.85;0.85;;;21.70;37.20;;;;;;5178146;27;47732;-20
2022/04/16 12:17:26;;;;;;;1.05;0.90;;;21.80;37.30;;;;;;5179207;27;46934;-12
2022/04/16 12:20:05;;;;;;;0.80;0.80;;;21.90;37.80;;;;;;5180363;27;47075;-12
2022/04/16 12:22:32;;;;;;;0.75;0.75;;;22.00;37.00;;;;;;5179979;27;48862;-20
2022/04/16 12:25:08;;;;;;;0.82;0.80;;;22.00;36.90;;;;;;5178543;27;47410;-12
2022/04/16 12:27:35;;;;;;;0.80;0.80;;;22.10;36.70;;;;;;5177698;27;46922;-20
2022/04/16 12:30:02;;;;;;;0.80;0.80;;;22.10;36.70;;;;;;5179438;27;47079;-12
2022/04/16 12:32:29;;;;;;;0.70;0.65;;;22.20;36.70;;;;;;5179559;27;48656;-12
2022/04/16 12:34:56;;;;;;;0.80;0.80;;;22.30;36.60;;;;;;5177354;27;46865;-20
2022/04/16 12:37:24;;;;;;;0.70;0.70;;;22.30;36.50;;;;;;5178310;27;46790;-13
2022/04/16 12:39:51;;;;;;;0.85;0.85;;;22.30;36.40;;;;;;5175200;27;46944;-20
2022/04/16 12:42:17;;;;;;;0.80;0.80;;;22.30;36.60;;;;;;5174485;27;48080;-21
2022/04/16 12:44:44;;;;;;;2.70;0.80;;;22.40;36.90;;;;;;5176228;27;47039;-20
2022/04/16 12:47:11;;;;;;;3.35;0.85;;;22.40;36.80;;;;;;5176345;27;46968;-13
2022/04/16 12:49:37;;;;;;;1.00;0.90;;;22.50;36.80;;;;;;5174997;27;46950;-20
2022/04/16 12:52:05;;;;;;;1.25;0.90;;;22.60;36.80;;;;;;5177179;27;48119;-12
2022/04/16 12:54:35;;;;;;;2.03;0.70;;;22.60;36.70;;;;;;5176799;27;47138;-13
2022/04/16 12:57:02;;;;;;;0.70;0.70;;;22.70;36.70;;;;;;5164156;27;46962;-20
2022/04/16 12:59:29;;;;;;;0.80;0.80;;;22.80;36.70;;;;;;5147191;27;47175;-20
2022/04/16 13:01:55;;;;;;;1.73;0.90;;;22.90;36.20;;;;;;5159828;27;46933;-21
2022/04/16 13:04:22;;;;;;;0.80;0.80;;;22.90;34.80;;;;;;5168286;27;47395;-20
2022/04/16 13:06:49;;;;;;;7.95;5.22;;;23.00;34.60;;;;;;5168061;27;46858;-20
2022/04/16 13:09:15;;;;;;;3.95;2.45;;;22.80;33.90;;;;;;5168727;27;46924;-13
2022/04/16 13:11:44;;;;;;;3.40;2.75;;;22.90;34.30;;;;;;5168246;27;48826;-20
2022/04/16 13:14:11;;;;;;;6.63;3.50;;;23.00;33.70;;;;;;5168289;27;46951;-12